Aeroporto :
LOGIN :

Iscrizione | Disclaimer

   EN    FR    IT 

 










Sommario :    VFR   VFR Marginale   IFR   IFR Intensivo   IFR Molto Intensivo
Visibilità : 
Base nubi : 
>= 8 km
>= 3000ft
5 / 8 km
1000 / 3000 ft
1500m / 5 km
500 / 1000 ft
800 / 1500m
200 / 500 ft
< 800m
< 200 ft
Simboli :   Temporali  Nebbia  Neve Forte  Precipitazioni Forti  Vento > 20 kt
SIGMETs :   Varie  Temporali  Ghiacco  Turbolenza  Onda orograficha  Ceneri Vulcaniche






- Altitudine del aeroporto : 17 ft
- Codice IATA : GRQ


EHGG - Groningen Eelde

ULTIMO METAR :
  • 121325Z AUTO 19011KT 150V220 9999 SCT015 BKN019 OVC033 06/03 Q0997 NOSIG

METARs OBSOLETI :
  • 121255Z AUTO 19012KT 150V220 9999 FEW014 SCT021 OVC024 06/03 Q0997 NOSIG
  • 121225Z AUTO 19011KT 150V220 9999 FEW014 SCT018 BKN021 06/03 Q0998 NOSIG
  • 121155Z AUTO 19012KT 160V220 9999 FEW014 BKN017 OVC020 06/04 Q0998 NOSIG
  • 121125Z AUTO 20013KT 160V230 9999 SCT014 OVC016 06/03 Q0998 NOSIG
  • 121055Z AUTO 19010KT 150V220 9999 BKN013 OVC016 06/03 Q0998 NOSIG

TAF TAF EHGG
Valido dal 12 a 12 ore il 13 a 18 ore UTC


121114Z 1212/1318 21014KT 9999 BKN015
PROB30
TEMPO 1212/1214 22015G25KT 7000 -RA -SHRA BKN012 FEW015CB
BECMG 1300/1303 17015KT BKN008
PROB40
TEMPO 1301/1307 4000 DZRA BKN004
BECMG 1308/1311 23012KT SCT015 BKN030
TEMPO 1310/1317 7000 SHRA FEW020CB BKN030



MetMap, La meteo Aeronautica in un colpo d'occhio ! - Copyright ORBIFLY Dicembre 2007 - Disclaimer

ORBIFLY MET'MAP TEAM :

Programmazione e sviluppo : Alexandra Zaïnal
Concezione e sviluppo : Baudouin d'Aumeries
Co-Programmazione e sviluppo : Marc-Olivier Méhu
Supporto tecnico e logistico : Manuel Goepfert
Aiuto per la traduzione : Arnaldo La Scala

Contatto : metmap@orbifly.com




FONTI E CREDITI :

   NOAA